sensor_id;sensor_type;location;lat;lon;timestamp;P1;durP1;ratioP1;P2;durP2;ratioP2
9749;SDS011;4914;43.218;27.908;2022-09-24T00:01:24;31.53;;;23.60;;
9749;SDS011;4914;43.218;27.908;2022-09-24T00:03:53;30.00;;;23.03;;
9749;SDS011;4914;43.218;27.908;2022-09-24T00:06:23;30.43;;;22.97;;
9749;SDS011;4914;43.218;27.908;2022-09-24T00:08:53;32.90;;;24.40;;
9749;SDS011;4914;43.218;27.908;2022-09-24T00:11:21;30.57;;;23.60;;
9749;SDS011;4914;43.218;27.908;2022-09-24T00:13:49;29.17;;;23.13;;
9749;SDS011;4914;43.218;27.908;2022-09-24T00:16:18;28.80;;;22.07;;
9749;SDS011;4914;43.218;27.908;2022-09-24T00:18:47;26.07;;;20.27;;
9749;SDS011;4914;43.218;27.908;2022-09-24T00:21:15;22.07;;;17.23;;
9749;SDS011;4914;43.218;27.908;2022-09-24T00:23:43;21.67;;;16.93;;
9749;SDS011;4914;43.218;27.908;2022-09-24T00:26:15;22.30;;;14.67;;
9749;SDS011;4914;43.218;27.908;2022-09-24T00:28:59;17.67;;;13.57;;
9749;SDS011;4914;43.218;27.908;2022-09-24T00:31:26;16.27;;;12.93;;
9749;SDS011;4914;43.218;27.908;2022-09-24T00:33:53;13.67;;;12.03;;
9749;SDS011;4914;43.218;27.908;2022-09-24T00:36:21;16.37;;;12.13;;
9749;SDS011;4914;43.218;27.908;2022-09-24T00:38:48;12.73;;;11.40;;
9749;SDS011;4914;43.218;27.908;2022-09-24T00:41:17;15.40;;;12.03;;
9749;SDS011;4914;43.218;27.908;2022-09-24T00:43:46;17.63;;;13.77;;
9749;SDS011;4914;43.218;27.908;2022-09-24T00:46:15;17.50;;;14.17;;
9749;SDS011;4914;43.218;27.908;2022-09-24T00:48:47;19.60;;;14.53;;
9749;SDS011;4914;43.218;27.908;2022-09-24T00:51:18;20.93;;;16.03;;
9749;SDS011;4914;43.218;27.908;2022-09-24T00:53:47;21.43;;;17.80;;
9749;SDS011;4914;43.218;27.908;2022-09-24T00:56:18;24.70;;;19.53;;
9749;SDS011;4914;43.218;27.908;2022-09-24T00:58:48;24.77;;;20.33;;
9749;SDS011;4914;43.218;27.908;2022-09-24T01:01:17;27.53;;;20.97;;
9749;SDS011;4914;43.218;27.908;2022-09-24T01:03:46;31.33;;;21.60;;
9749;SDS011;4914;43.218;27.908;2022-09-24T01:06:15;29.00;;;21.63;;
9749;SDS011;4914;43.218;27.908;2022-09-24T01:08:42;23.93;;;21.43;;
9749;SDS011;4914;43.218;27.908;2022-09-24T01:11:12;28.37;;;22.67;;
9749;SDS011;4914;43.218;27.908;2022-09-24T01:13:55;24.67;;;20.67;;
9749;SDS011;4914;43.218;27.908;2022-09-24T01:16:36;25.73;;;20.57;;
9749;SDS011;4914;43.218;27.908;2022-09-24T01:19:16;27.00;;;21.23;;
9749;SDS011;4914;43.218;27.908;2022-09-24T01:22:00;24.93;;;22.27;;
9749;SDS011;4914;43.218;27.908;2022-09-24T01:24:45;26.90;;;20.70;;
9749;SDS011;4914;43.218;27.908;2022-09-24T01:27:25;22.60;;;20.20;;
9749;SDS011;4914;43.218;27.908;2022-09-24T01:30:11;26.83;;;19.97;;
9749;SDS011;4914;43.218;27.908;2022-09-24T01:32:40;26.57;;;20.27;;
9749;SDS011;4914;43.218;27.908;2022-09-24T01:35:13;24.33;;;19.47;;
9749;SDS011;4914;43.218;27.908;2022-09-24T01:37:46;29.03;;;17.63;;
9749;SDS011;4914;43.218;27.908;2022-09-24T01:40:17;25.77;;;18.30;;
9749;SDS011;4914;43.218;27.908;2022-09-24T01:42:47;24.50;;;17.27;;
9749;SDS011;4914;43.218;27.908;2022-09-24T01:45:17;18.57;;;16.57;;
9749;SDS011;4914;43.218;27.908;2022-09-24T01:47:46;19.27;;;15.43;;
9749;SDS011;4914;43.218;27.908;2022-09-24T01:50:14;19.60;;;15.33;;
9749;SDS011;4914;43.218;27.908;2022-09-24T01:52:44;18.40;;;15.00;;
9749;SDS011;4914;43.218;27.908;2022-09-24T01:55:16;22.40;;;13.87;;
9749;SDS011;4914;43.218;27.908;2022-09-24T01:57:49;20.37;;;14.30;;
9749;SDS011;4914;43.218;27.908;2022-09-24T02:00:21;19.60;;;13.23;;
9749;SDS011;4914;43.218;27.908;2022-09-24T02:02:49;18.37;;;13.83;;
9749;SDS011;4914;43.218;27.908;2022-09-24T02:05:24;19.80;;;13.47;;
9749;SDS011;4914;43.218;27.908;2022-09-24T02:08:00;17.13;;;12.87;;
9749;SDS011;4914;43.218;27.908;2022-09-24T02:10:33;17.17;;;13.07;;
9749;SDS011;4914;43.218;27.908;2022-09-24T02:13:07;18.07;;;12.97;;
9749;SDS011;4914;43.218;27.908;2022-09-24T02:15:40;13.70;;;12.40;;
9749;SDS011;4914;43.218;27.908;2022-09-24T02:18:11;20.70;;;12.70;;
9749;SDS011;4914;43.218;27.908;2022-09-24T02:20:42;21.37;;;12.70;;
9749;SDS011;4914;43.218;27.908;2022-09-24T02:23:10;14.33;;;12.20;;
9749;SDS011;4914;43.218;27.908;2022-09-24T02:25:41;15.07;;;12.23;;
9749;SDS011;4914;43.218;27.908;2022-09-24T02:28:10;17.13;;;12.27;;
9749;SDS011;4914;43.218;27.908;2022-09-24T02:30:40;13.17;;;11.67;;
9749;SDS011;4914;43.218;27.908;2022-09-24T02:33:11;15.47;;;12.07;;
9749;SDS011;4914;43.218;27.908;2022-09-24T02:35:58;16.03;;;12.67;;
9749;SDS011;4914;43.218;27.908;2022-09-24T02:38:25;15.83;;;12.57;;
9749;SDS011;4914;43.218;27.908;2022-09-24T02:40:52;15.37;;;11.57;;
9749;SDS011;4914;43.218;27.908;2022-09-24T02:43:19;19.17;;;12.77;;
9749;SDS011;4914;43.218;27.908;2022-09-24T02:45:48;14.47;;;12.00;;
9749;SDS011;4914;43.218;27.908;2022-09-24T02:48:15;18.17;;;12.73;;
9749;SDS011;4914;43.218;27.908;2022-09-24T02:50:41;15.63;;;12.20;;
9749;SDS011;4914;43.218;27.908;2022-09-24T02:53:08;16.47;;;12.07;;
9749;SDS011;4914;43.218;27.908;2022-09-24T02:55:35;19.73;;;11.83;;
9749;SDS011;4914;43.218;27.908;2022-09-24T02:58:02;18.50;;;11.43;;
9749;SDS011;4914;43.218;27.908;2022-09-24T03:00:29;16.53;;;12.03;;
9749;SDS011;4914;43.218;27.908;2022-09-24T03:02:57;15.60;;;11.50;;
9749;SDS011;4914;43.218;27.908;2022-09-24T03:05:24;18.70;;;12.70;;
9749;SDS011;4914;43.218;27.908;2022-09-24T03:07:51;17.47;;;13.47;;
9749;SDS011;4914;43.218;27.908;2022-09-24T03:10:18;20.67;;;14.63;;
9749;SDS011;4914;43.218;27.908;2022-09-24T03:12:44;25.43;;;14.87;;
9749;SDS011;4914;43.218;27.908;2022-09-24T03:15:11;22.70;;;17.37;;
9749;SDS011;4914;43.218;27.908;2022-09-24T03:17:38;19.57;;;16.13;;
9749;SDS011;4914;43.218;27.908;2022-09-24T03:20:07;23.50;;;17.17;;
9749;SDS011;4914;43.218;27.908;2022-09-24T03:22:34;25.57;;;18.03;;
9749;SDS011;4914;43.218;27.908;2022-09-24T03:25:01;23.53;;;16.90;;
9749;SDS011;4914;43.218;27.908;2022-09-24T03:27:28;22.67;;;18.27;;
9749;SDS011;4914;43.218;27.908;2022-09-24T03:29:54;21.67;;;18.03;;
9749;SDS011;4914;43.218;27.908;2022-09-24T03:32:38;24.47;;;20.33;;
9749;SDS011;4914;43.218;27.908;2022-09-24T03:35:07;22.20;;;19.80;;
9749;SDS011;4914;43.218;27.908;2022-09-24T03:37:35;24.90;;;19.47;;
9749;SDS011;4914;43.218;27.908;2022-09-24T03:40:03;23.47;;;19.90;;
9749;SDS011;4914;43.218;27.908;2022-09-24T03:42:32;24.70;;;21.33;;
9749;SDS011;4914;43.218;27.908;2022-09-24T03:44:59;24.67;;;19.90;;
9749;SDS011;4914;43.218;27.908;2022-09-24T03:47:26;24.67;;;20.83;;
9749;SDS011;4914;43.218;27.908;2022-09-24T03:49:53;25.87;;;22.37;;
9749;SDS011;4914;43.218;27.908;2022-09-24T03:52:21;26.23;;;21.73;;
9749;SDS011;4914;43.218;27.908;2022-09-24T03:54:48;24.83;;;22.23;;
9749;SDS011;4914;43.218;27.908;2022-09-24T03:57:15;28.73;;;21.73;;
9749;SDS011;4914;43.218;27.908;2022-09-24T03:59:43;25.83;;;21.90;;
9749;SDS011;4914;43.218;27.908;2022-09-24T04:02:11;25.87;;;20.57;;
9749;SDS011;4914;43.218;27.908;2022-09-24T04:04:38;27.57;;;21.07;;
9749;SDS011;4914;43.218;27.908;2022-09-24T04:07:05;21.17;;;18.73;;
9749;SDS011;4914;43.218;27.908;2022-09-24T04:09:33;25.87;;;20.43;;
9749;SDS011;4914;43.218;27.908;2022-09-24T04:12:00;21.70;;;19.37;;
9749;SDS011;4914;43.218;27.908;2022-09-24T04:14:27;23.20;;;19.20;;
9749;SDS011;4914;43.218;27.908;2022-09-24T04:16:54;28.23;;;20.30;;
9749;SDS011;4914;43.218;27.908;2022-09-24T04:19:23;29.00;;;20.67;;
9749;SDS011;4914;43.218;27.908;2022-09-24T04:21:51;30.30;;;21.37;;
9749;SDS011;4914;43.218;27.908;2022-09-24T04:24:18;28.13;;;22.27;;
9749;SDS011;4914;43.218;27.908;2022-09-24T04:26:46;32.30;;;22.43;;
9749;SDS011;4914;43.218;27.908;2022-09-24T04:29:14;26.27;;;22.07;;
9749;SDS011;4914;43.218;27.908;2022-09-24T04:31:41;25.80;;;23.03;;
9749;SDS011;4914;43.218;27.908;2022-09-24T04:34:08;23.90;;;21.23;;
9749;SDS011;4914;43.218;27.908;2022-09-24T04:36:35;30.60;;;20.90;;
9749;SDS011;4914;43.218;27.908;2022-09-24T04:39:02;23.70;;;20.30;;
9749;SDS011;4914;43.218;27.908;2022-09-24T04:41:29;24.90;;;19.67;;
9749;SDS011;4914;43.218;27.908;2022-09-24T04:44:00;26.27;;;18.63;;
9749;SDS011;4914;43.218;27.908;2022-09-24T04:46:27;30.77;;;18.20;;
9749;SDS011;4914;43.218;27.908;2022-09-24T04:48:57;21.57;;;18.20;;
9749;SDS011;4914;43.218;27.908;2022-09-24T04:51:24;21.33;;;16.60;;
9749;SDS011;4914;43.218;27.908;2022-09-24T04:53:51;21.97;;;15.73;;
9749;SDS011;4914;43.218;27.908;2022-09-24T04:56:18;20.10;;;14.80;;
9749;SDS011;4914;43.218;27.908;2022-09-24T04:58:48;19.93;;;13.70;;
9749;SDS011;4914;43.218;27.908;2022-09-24T05:01:17;20.53;;;14.27;;
9749;SDS011;4914;43.218;27.908;2022-09-24T05:03:44;17.27;;;12.57;;
9749;SDS011;4914;43.218;27.908;2022-09-24T05:06:11;20.53;;;14.47;;
9749;SDS011;4914;43.218;27.908;2022-09-24T05:08:38;19.87;;;15.23;;
9749;SDS011;4914;43.218;27.908;2022-09-24T05:11:04;20.83;;;16.13;;
9749;SDS011;4914;43.218;27.908;2022-09-24T05:13:31;18.43;;;14.70;;
9749;SDS011;4914;43.218;27.908;2022-09-24T05:15:59;23.73;;;14.23;;
9749;SDS011;4914;43.218;27.908;2022-09-24T05:18:27;17.93;;;14.10;;
9749;SDS011;4914;43.218;27.908;2022-09-24T05:20:54;16.93;;;13.47;;
9749;SDS011;4914;43.218;27.908;2022-09-24T05:23:21;16.47;;;14.40;;
9749;SDS011;4914;43.218;27.908;2022-09-24T05:25:48;16.87;;;14.70;;
9749;SDS011;4914;43.218;27.908;2022-09-24T05:28:32;17.80;;;15.50;;
9749;SDS011;4914;43.218;27.908;2022-09-24T05:31:00;17.73;;;15.90;;
9749;SDS011;4914;43.218;27.908;2022-09-24T05:33:28;19.37;;;16.60;;
9749;SDS011;4914;43.218;27.908;2022-09-24T05:35:55;20.50;;;15.97;;
9749;SDS011;4914;43.218;27.908;2022-09-24T05:38:23;18.47;;;15.67;;
9749;SDS011;4914;43.218;27.908;2022-09-24T05:40:50;19.20;;;15.77;;
9749;SDS011;4914;43.218;27.908;2022-09-24T05:43:17;22.43;;;16.17;;
9749;SDS011;4914;43.218;27.908;2022-09-24T05:45:44;19.70;;;16.23;;
9749;SDS011;4914;43.218;27.908;2022-09-24T05:48:11;24.03;;;17.10;;
9749;SDS011;4914;43.218;27.908;2022-09-24T05:50:40;21.90;;;16.97;;
9749;SDS011;4914;43.218;27.908;2022-09-24T05:53:07;19.90;;;17.27;;
9749;SDS011;4914;43.218;27.908;2022-09-24T05:55:34;20.23;;;17.67;;
9749;SDS011;4914;43.218;27.908;2022-09-24T05:58:01;24.00;;;18.30;;
9749;SDS011;4914;43.218;27.908;2022-09-24T06:00:29;22.20;;;16.73;;
9749;SDS011;4914;43.218;27.908;2022-09-24T06:03:00;18.83;;;16.80;;
9749;SDS011;4914;43.218;27.908;2022-09-24T06:05:29;20.87;;;15.20;;
9749;SDS011;4914;43.218;27.908;2022-09-24T06:07:57;15.70;;;14.07;;
9749;SDS011;4914;43.218;27.908;2022-09-24T06:10:24;15.03;;;13.20;;
9749;SDS011;4914;43.218;27.908;2022-09-24T06:12:51;14.10;;;12.47;;
9749;SDS011;4914;43.218;27.908;2022-09-24T06:15:18;15.00;;;13.50;;
9749;SDS011;4914;43.218;27.908;2022-09-24T06:17:46;16.83;;;13.70;;
9749;SDS011;4914;43.218;27.908;2022-09-24T06:20:13;13.93;;;12.47;;
9749;SDS011;4914;43.218;27.908;2022-09-24T06:22:40;17.93;;;13.27;;
9749;SDS011;4914;43.218;27.908;2022-09-24T06:25:08;15.33;;;13.50;;
9749;SDS011;4914;43.218;27.908;2022-09-24T06:27:35;16.60;;;13.80;;
9749;SDS011;4914;43.218;27.908;2022-09-24T06:30:02;19.90;;;14.63;;
9749;SDS011;4914;43.218;27.908;2022-09-24T06:32:30;18.53;;;13.40;;
9749;SDS011;4914;43.218;27.908;2022-09-24T06:34:56;16.13;;;14.43;;
9749;SDS011;4914;43.218;27.908;2022-09-24T06:37:23;16.77;;;15.07;;
9749;SDS011;4914;43.218;27.908;2022-09-24T06:39:50;20.17;;;16.33;;
9749;SDS011;4914;43.218;27.908;2022-09-24T06:42:18;17.20;;;13.53;;
9749;SDS011;4914;43.218;27.908;2022-09-24T06:44:45;14.07;;;12.80;;
9749;SDS011;4914;43.218;27.908;2022-09-24T06:47:12;15.53;;;13.33;;
9749;SDS011;4914;43.218;27.908;2022-09-24T06:49:39;16.80;;;11.53;;
9749;SDS011;4914;43.218;27.908;2022-09-24T06:52:06;9.33;;;8.40;;
9749;SDS011;4914;43.218;27.908;2022-09-24T06:54:33;9.00;;;7.40;;
9749;SDS011;4914;43.218;27.908;2022-09-24T06:56:59;7.73;;;6.90;;
9749;SDS011;4914;43.218;27.908;2022-09-24T06:59:28;9.43;;;8.27;;
9749;SDS011;4914;43.218;27.908;2022-09-24T07:01:55;7.93;;;7.23;;
9749;SDS011;4914;43.218;27.908;2022-09-24T07:04:23;7.53;;;6.83;;
9749;SDS011;4914;43.218;27.908;2022-09-24T07:06:50;12.40;;;7.10;;
9749;SDS011;4914;43.218;27.908;2022-09-24T07:09:34;8.53;;;6.60;;
9749;SDS011;4914;43.218;27.908;2022-09-24T07:12:01;8.37;;;6.60;;
9749;SDS011;4914;43.218;27.908;2022-09-24T07:14:31;7.80;;;6.60;;
9749;SDS011;4914;43.218;27.908;2022-09-24T07:16:58;7.32;;;6.72;;
9749;SDS011;4914;43.218;27.908;2022-09-24T07:19:25;8.57;;;6.32;;
9749;SDS011;4914;43.218;27.908;2022-09-24T07:21:51;6.80;;;6.10;;
9749;SDS011;4914;43.218;27.908;2022-09-24T07:24:18;7.32;;;6.63;;
9749;SDS011;4914;43.218;27.908;2022-09-24T07:26:45;7.35;;;6.72;;
9749;SDS011;4914;43.218;27.908;2022-09-24T07:29:12;10.35;;;8.02;;
9749;SDS011;4914;43.218;27.908;2022-09-24T07:31:40;8.55;;;6.68;;
9749;SDS011;4914;43.218;27.908;2022-09-24T07:34:07;8.27;;;7.65;;
9749;SDS011;4914;43.218;27.908;2022-09-24T07:36:34;8.10;;;6.38;;
9749;SDS011;4914;43.218;27.908;2022-09-24T07:39:00;6.78;;;6.20;;
9749;SDS011;4914;43.218;27.908;2022-09-24T07:41:28;7.20;;;6.68;;
9749;SDS011;4914;43.218;27.908;2022-09-24T07:43:55;6.85;;;6.25;;
9749;SDS011;4914;43.218;27.908;2022-09-24T07:46:22;6.32;;;5.88;;
9749;SDS011;4914;43.218;27.908;2022-09-24T07:48:52;7.55;;;6.85;;
9749;SDS011;4914;43.218;27.908;2022-09-24T07:51:20;7.78;;;6.70;;
9749;SDS011;4914;43.218;27.908;2022-09-24T07:53:47;6.97;;;5.97;;
9749;SDS011;4914;43.218;27.908;2022-09-24T07:56:14;6.95;;;6.35;;
9749;SDS011;4914;43.218;27.908;2022-09-24T07:58:41;8.30;;;6.55;;
9749;SDS011;4914;43.218;27.908;2022-09-24T08:01:09;8.80;;;8.00;;
9749;SDS011;4914;43.218;27.908;2022-09-24T08:03:36;7.25;;;6.65;;
9749;SDS011;4914;43.218;27.908;2022-09-24T08:06:06;6.68;;;6.18;;
9749;SDS011;4914;43.218;27.908;2022-09-24T08:08:33;6.80;;;6.20;;
9749;SDS011;4914;43.218;27.908;2022-09-24T08:11:01;6.90;;;6.20;;
9749;SDS011;4914;43.218;27.908;2022-09-24T08:13:29;6.82;;;6.22;;
9749;SDS011;4914;43.218;27.908;2022-09-24T08:15:56;12.15;;;10.45;;
9749;SDS011;4914;43.218;27.908;2022-09-24T08:18:24;8.55;;;7.50;;
9749;SDS011;4914;43.218;27.908;2022-09-24T08:20:51;6.97;;;6.28;;
9749;SDS011;4914;43.218;27.908;2022-09-24T08:23:19;7.13;;;6.50;;
9749;SDS011;4914;43.218;27.908;2022-09-24T08:25:46;9.18;;;8.48;;
9749;SDS011;4914;43.218;27.908;2022-09-24T08:28:13;6.90;;;6.40;;
9749;SDS011;4914;43.218;27.908;2022-09-24T08:30:41;7.28;;;6.47;;
9749;SDS011;4914;43.218;27.908;2022-09-24T08:33:08;19.13;;;16.73;;
9749;SDS011;4914;43.218;27.908;2022-09-24T08:35:36;13.75;;;9.95;;
9749;SDS011;4914;43.218;27.908;2022-09-24T08:38:04;10.32;;;9.30;;
9749;SDS011;4914;43.218;27.908;2022-09-24T08:40:35;11.70;;;10.70;;
9749;SDS011;4914;43.218;27.908;2022-09-24T08:43:05;6.97;;;6.47;;
9749;SDS011;4914;43.218;27.908;2022-09-24T08:45:41;8.75;;;6.25;;
9749;SDS011;4914;43.218;27.908;2022-09-24T08:48:33;6.55;;;6.05;;
9749;SDS011;4914;43.218;27.908;2022-09-24T08:51:06;12.13;;;8.75;;
9749;SDS011;4914;43.218;27.908;2022-09-24T08:53:40;27.70;;;17.60;;
9749;SDS011;4914;43.218;27.908;2022-09-24T08:56:14;9.90;;;9.02;;
9749;SDS011;4914;43.218;27.908;2022-09-24T08:58:46;13.55;;;11.57;;
9749;SDS011;4914;43.218;27.908;2022-09-24T09:01:18;6.32;;;5.72;;
9749;SDS011;4914;43.218;27.908;2022-09-24T09:03:54;9.73;;;6.38;;
9749;SDS011;4914;43.218;27.908;2022-09-24T09:06:38;5.90;;;5.50;;
9749;SDS011;4914;43.218;27.908;2022-09-24T09:09:19;5.50;;;5.10;;
9749;SDS011;4914;43.218;27.908;2022-09-24T09:11:50;6.55;;;5.20;;
9749;SDS011;4914;43.218;27.908;2022-09-24T09:14:22;9.18;;;5.30;;
9749;SDS011;4914;43.218;27.908;2022-09-24T09:16:56;6.50;;;5.78;;
9749;SDS011;4914;43.218;27.908;2022-09-24T09:19:27;6.68;;;5.43;;
9749;SDS011;4914;43.218;27.908;2022-09-24T09:21:59;7.57;;;5.75;;
9749;SDS011;4914;43.218;27.908;2022-09-24T09:24:34;6.45;;;5.10;;
9749;SDS011;4914;43.218;27.908;2022-09-24T09:27:11;5.50;;;5.00;;
9749;SDS011;4914;43.218;27.908;2022-09-24T09:29:40;7.25;;;4.90;;
9749;SDS011;4914;43.218;27.908;2022-09-24T09:32:09;5.05;;;4.40;;
9749;SDS011;4914;43.218;27.908;2022-09-24T09:34:50;5.25;;;4.78;;
9749;SDS011;4914;43.218;27.908;2022-09-24T09:37:26;6.47;;;4.88;;
9749;SDS011;4914;43.218;27.908;2022-09-24T09:40:02;5.55;;;4.63;;
9749;SDS011;4914;43.218;27.908;2022-09-24T09:42:41;7.15;;;4.90;;
9749;SDS011;4914;43.218;27.908;2022-09-24T09:45:16;5.78;;;4.97;;
9749;SDS011;4914;43.218;27.908;2022-09-24T09:47:49;4.90;;;4.50;;
9749;SDS011;4914;43.218;27.908;2022-09-24T09:50:22;5.25;;;4.80;;
9749;SDS011;4914;43.218;27.908;2022-09-24T09:52:52;5.82;;;4.65;;
9749;SDS011;4914;43.218;27.908;2022-09-24T09:55:20;5.00;;;4.45;;
9749;SDS011;4914;43.218;27.908;2022-09-24T09:57:50;5.20;;;4.70;;
9749;SDS011;4914;43.218;27.908;2022-09-24T10:00:25;4.95;;;4.50;;
9749;SDS011;4914;43.218;27.908;2022-09-24T10:02:57;5.70;;;4.78;;
9749;SDS011;4914;43.218;27.908;2022-09-24T10:05:24;5.15;;;4.40;;
9749;SDS011;4914;43.218;27.908;2022-09-24T10:07:53;5.40;;;4.90;;
9749;SDS011;4914;43.218;27.908;2022-09-24T10:10:22;5.78;;;4.90;;
9749;SDS011;4914;43.218;27.908;2022-09-24T10:12:52;5.32;;;4.82;;
9749;SDS011;4914;43.218;27.908;2022-09-24T10:15:21;5.53;;;4.80;;
9749;SDS011;4914;43.218;27.908;2022-09-24T10:17:49;5.35;;;4.93;;
9749;SDS011;4914;43.218;27.908;2022-09-24T10:20:20;5.05;;;4.65;;
9749;SDS011;4914;43.218;27.908;2022-09-24T10:22:50;4.88;;;4.45;;
9749;SDS011;4914;43.218;27.908;2022-09-24T10:25:21;5.60;;;4.57;;
9749;SDS011;4914;43.218;27.908;2022-09-24T10:27:50;5.75;;;4.78;;
9749;SDS011;4914;43.218;27.908;2022-09-24T10:30:47;4.53;;;4.22;;
9749;SDS011;4914;43.218;27.908;2022-09-24T10:33:15;4.95;;;4.45;;
9749;SDS011;4914;43.218;27.908;2022-09-24T10:35:43;4.78;;;4.47;;
9749;SDS011;4914;43.218;27.908;2022-09-24T10:38:14;4.93;;;4.47;;
9749;SDS011;4914;43.218;27.908;2022-09-24T10:40:43;5.03;;;4.47;;
9749;SDS011;4914;43.218;27.908;2022-09-24T10:43:16;4.60;;;4.30;;
9749;SDS011;4914;43.218;27.908;2022-09-24T10:46:05;4.85;;;4.13;;
9749;SDS011;4914;43.218;27.908;2022-09-24T10:48:42;4.72;;;4.20;;
9749;SDS011;4914;43.218;27.908;2022-09-24T10:51:22;4.78;;;4.30;;
9749;SDS011;4914;43.218;27.908;2022-09-24T10:54:01;6.47;;;4.63;;
9749;SDS011;4914;43.218;27.908;2022-09-24T10:56:51;6.07;;;4.78;;
9749;SDS011;4914;43.218;27.908;2022-09-24T11:05:16;5.65;;;5.10;;
9749;SDS011;4914;43.218;27.908;2022-09-24T11:08:03;5.05;;;4.75;;
9749;SDS011;4914;43.218;27.908;2022-09-24T11:13:39;5.18;;;4.78;;
9749;SDS011;4914;43.218;27.908;2022-09-24T11:16:23;6.05;;;4.88;;
9749;SDS011;4914;43.218;27.908;2022-09-24T11:19:05;4.65;;;4.30;;
9749;SDS011;4914;43.218;27.908;2022-09-24T11:21:50;5.40;;;4.90;;
9749;SDS011;4914;43.218;27.908;2022-09-24T11:24:34;4.45;;;4.15;;
9749;SDS011;4914;43.218;27.908;2022-09-24T11:27:21;6.88;;;5.00;;
9749;SDS011;4914;43.218;27.908;2022-09-24T11:30:06;6.35;;;5.85;;
9749;SDS011;4914;43.218;27.908;2022-09-24T11:32:40;6.25;;;5.50;;
9749;SDS011;4914;43.218;27.908;2022-09-24T11:35:28;5.10;;;4.70;;
9749;SDS011;4914;43.218;27.908;2022-09-24T11:38:08;6.63;;;5.10;;
9749;SDS011;4914;43.218;27.908;2022-09-24T11:40:59;5.57;;;4.85;;
9749;SDS011;4914;43.218;27.908;2022-09-24T11:43:44;4.97;;;4.60;;
9749;SDS011;4914;43.218;27.908;2022-09-24T11:46:29;4.78;;;4.38;;
9749;SDS011;4914;43.218;27.908;2022-09-24T11:52:09;5.28;;;4.80;;
9749;SDS011;4914;43.218;27.908;2022-09-24T11:54:46;7.78;;;6.55;;
9749;SDS011;4914;43.218;27.908;2022-09-24T11:57:26;10.02;;;9.00;;
9749;SDS011;4914;43.218;27.908;2022-09-24T11:59:57;7.68;;;5.30;;
9749;SDS011;4914;43.218;27.908;2022-09-24T12:02:29;6.28;;;5.60;;
9749;SDS011;4914;43.218;27.908;2022-09-24T12:05:04;5.22;;;4.82;;
9749;SDS011;4914;43.218;27.908;2022-09-24T12:07:36;6.63;;;5.00;;
9749;SDS011;4914;43.218;27.908;2022-09-24T12:10:20;8.07;;;6.35;;
9749;SDS011;4914;43.218;27.908;2022-09-24T12:12:51;7.13;;;6.53;;
9749;SDS011;4914;43.218;27.908;2022-09-24T12:15:23;7.22;;;5.78;;
9749;SDS011;4914;43.218;27.908;2022-09-24T12:17:56;5.68;;;5.20;;
9749;SDS011;4914;43.218;27.908;2022-09-24T12:20:29;18.42;;;13.55;;
9749;SDS011;4914;43.218;27.908;2022-09-24T12:22:58;58.10;;;42.78;;
9749;SDS011;4914;43.218;27.908;2022-09-24T12:25:33;35.00;;;23.65;;
9749;SDS011;4914;43.218;27.908;2022-09-24T12:28:05;27.83;;;21.80;;
9749;SDS011;4914;43.218;27.908;2022-09-24T12:30:38;20.17;;;16.85;;
9749;SDS011;4914;43.218;27.908;2022-09-24T12:33:28;6.80;;;6.15;;
9749;SDS011;4914;43.218;27.908;2022-09-24T12:36:03;8.82;;;8.05;;
9749;SDS011;4914;43.218;27.908;2022-09-24T12:38:35;12.35;;;10.30;;
9749;SDS011;4914;43.218;27.908;2022-09-24T12:41:26;32.70;;;22.02;;
9749;SDS011;4914;43.218;27.908;2022-09-24T12:44:00;6.38;;;5.15;;
9749;SDS011;4914;43.218;27.908;2022-09-24T12:46:30;6.05;;;4.82;;
9749;SDS011;4914;43.218;27.908;2022-09-24T12:49:05;5.35;;;4.90;;
9749;SDS011;4914;43.218;27.908;2022-09-24T12:51:45;5.45;;;5.05;;
9749;SDS011;4914;43.218;27.908;2022-09-24T12:54:19;5.70;;;5.30;;
9749;SDS011;4914;43.218;27.908;2022-09-24T12:57:03;6.60;;;5.00;;
9749;SDS011;4914;43.218;27.908;2022-09-24T12:59:31;5.93;;;5.00;;
9749;SDS011;4914;43.218;27.908;2022-09-24T13:02:05;5.43;;;5.03;;
9749;SDS011;4914;43.218;27.908;2022-09-24T13:04:42;6.95;;;6.35;;
9749;SDS011;4914;43.218;27.908;2022-09-24T13:07:28;6.50;;;5.68;;
9749;SDS011;4914;43.218;27.908;2022-09-24T13:09:57;5.25;;;4.90;;
9749;SDS011;4914;43.218;27.908;2022-09-24T13:12:37;8.65;;;7.80;;
9749;SDS011;4914;43.218;27.908;2022-09-24T13:15:05;6.85;;;5.22;;
9749;SDS011;4914;43.218;27.908;2022-09-24T13:17:34;5.85;;;5.30;;
9749;SDS011;4914;43.218;27.908;2022-09-24T13:20:04;6.28;;;5.57;;
9749;SDS011;4914;43.218;27.908;2022-09-24T13:22:34;5.20;;;4.88;;
9749;SDS011;4914;43.218;27.908;2022-09-24T13:25:18;7.40;;;6.32;;
9749;SDS011;4914;43.218;27.908;2022-09-24T13:27:55;6.57;;;6.07;;
9749;SDS011;4914;43.218;27.908;2022-09-24T13:30:30;7.88;;;4.70;;
9749;SDS011;4914;43.218;27.908;2022-09-24T13:33:01;5.57;;;4.95;;
9749;SDS011;4914;43.218;27.908;2022-09-24T13:35:38;5.20;;;4.80;;
9749;SDS011;4914;43.218;27.908;2022-09-24T13:38:14;7.70;;;4.82;;
9749;SDS011;4914;43.218;27.908;2022-09-24T13:40:47;6.20;;;5.03;;
9749;SDS011;4914;43.218;27.908;2022-09-24T13:43:24;5.47;;;5.00;;
9749;SDS011;4914;43.218;27.908;2022-09-24T13:46:12;5.22;;;4.70;;
9749;SDS011;4914;43.218;27.908;2022-09-24T13:48:42;7.00;;;5.30;;
9749;SDS011;4914;43.218;27.908;2022-09-24T13:51:15;5.47;;;4.97;;
9749;SDS011;4914;43.218;27.908;2022-09-24T13:53:47;4.95;;;4.65;;
9749;SDS011;4914;43.218;27.908;2022-09-24T13:56:18;5.80;;;5.05;;
9749;SDS011;4914;43.218;27.908;2022-09-24T13:58:45;6.13;;;4.88;;
9749;SDS011;4914;43.218;27.908;2022-09-24T14:01:16;6.97;;;4.90;;
9749;SDS011;4914;43.218;27.908;2022-09-24T14:03:50;8.70;;;5.50;;
9749;SDS011;4914;43.218;27.908;2022-09-24T14:06:19;6.35;;;5.75;;
9749;SDS011;4914;43.218;27.908;2022-09-24T14:08:49;5.30;;;4.90;;
9749;SDS011;4914;43.218;27.908;2022-09-24T14:11:17;5.57;;;4.93;;
9749;SDS011;4914;43.218;27.908;2022-09-24T14:13:48;6.80;;;5.25;;
9749;SDS011;4914;43.218;27.908;2022-09-24T14:16:16;5.50;;;5.10;;
9749;SDS011;4914;43.218;27.908;2022-09-24T14:18:44;5.60;;;4.80;;
9749;SDS011;4914;43.218;27.908;2022-09-24T14:21:12;5.35;;;4.70;;
9749;SDS011;4914;43.218;27.908;2022-09-24T14:23:46;10.98;;;5.20;;
9749;SDS011;4914;43.218;27.908;2022-09-24T14:26:21;6.43;;;4.90;;
9749;SDS011;4914;43.218;27.908;2022-09-24T14:28:53;4.93;;;4.55;;
9749;SDS011;4914;43.218;27.908;2022-09-24T14:31:21;5.88;;;5.13;;
9749;SDS011;4914;43.218;27.908;2022-09-24T14:33:48;5.45;;;5.05;;
9749;SDS011;4914;43.218;27.908;2022-09-24T14:36:16;5.32;;;4.93;;
9749;SDS011;4914;43.218;27.908;2022-09-24T14:38:48;7.82;;;5.20;;
9749;SDS011;4914;43.218;27.908;2022-09-24T14:41:20;5.45;;;4.95;;
9749;SDS011;4914;43.218;27.908;2022-09-24T14:43:50;6.20;;;5.15;;
9749;SDS011;4914;43.218;27.908;2022-09-24T14:46:20;7.55;;;5.60;;
9749;SDS011;4914;43.218;27.908;2022-09-24T14:48:51;6.20;;;5.60;;
9749;SDS011;4914;43.218;27.908;2022-09-24T14:51:29;6.47;;;5.72;;
9749;SDS011;4914;43.218;27.908;2022-09-24T14:53:57;6.07;;;5.32;;
9749;SDS011;4914;43.218;27.908;2022-09-24T14:56:28;5.60;;;5.10;;
9749;SDS011;4914;43.218;27.908;2022-09-24T14:58:56;5.68;;;5.18;;
9749;SDS011;4914;43.218;27.908;2022-09-24T15:01:28;7.20;;;4.97;;
9749;SDS011;4914;43.218;27.908;2022-09-24T15:03:56;6.00;;;5.50;;
9749;SDS011;4914;43.218;27.908;2022-09-24T15:06:27;5.88;;;5.18;;
9749;SDS011;4914;43.218;27.908;2022-09-24T15:08:59;5.85;;;5.35;;
9749;SDS011;4914;43.218;27.908;2022-09-24T15:11:31;5.47;;;5.07;;
9749;SDS011;4914;43.218;27.908;2022-09-24T15:14:00;6.20;;;5.40;;
9749;SDS011;4914;43.218;27.908;2022-09-24T15:16:36;5.95;;;5.32;;
9749;SDS011;4914;43.218;27.908;2022-09-24T15:19:14;11.25;;;10.25;;
9749;SDS011;4914;43.218;27.908;2022-09-24T15:21:44;7.45;;;6.60;;
9749;SDS011;4914;43.218;27.908;2022-09-24T15:24:10;7.10;;;6.50;;